Time;durP1;ratioP1;P1;durP2;ratioP2;P2;SDS_P1;SDS_P2;PMS_P1;PMS_P2;Temp;Humidity;BMP_temperature;BMP_pressure;BME280_temperature;BME280_humidity;BME280_pressure;Samples;Min_cycle;Max_cycle;Signal;HPM_P1;HPM_P2
2023/07/14 00:02:00;;;;;;;11.27;7.57;;;12.80;99.90;;;13.74;100.00;100902.94;5019297;28;20393;-81
2023/07/14 00:04:33;;;;;;;10.15;7.07;;;12.80;99.90;;;13.77;100.00;100897.00;5015719;28;20489;-82
2023/07/14 00:07:00;;;;;;;10.65;7.72;;;12.80;99.90;;;13.76;100.00;100897.22;5013087;28;20041;-82
2023/07/14 00:09:29;;;;;;;12.85;8.27;;;12.80;99.90;;;13.88;100.00;100900.00;5018963;28;20042;-83
2023/07/14 00:11:55;;;;;;;10.32;8.13;;;12.90;99.90;;;13.92;100.00;100888.34;5013735;28;20032;-81
2023/07/14 00:14:21;;;;;;;11.45;8.13;;;12.90;99.90;;;13.91;100.00;100896.78;5017002;28;20045;-82
2023/07/14 00:16:47;;;;;;;10.98;8.88;;;12.90;99.90;;;13.94;100.00;100897.19;5018080;28;20041;-81
2023/07/14 00:19:17;;;;;;;13.10;8.40;;;12.90;99.90;;;13.98;100.00;100903.03;5020637;28;20033;-82
2023/07/14 00:21:45;;;;;;;11.65;8.05;;;13.00;99.90;;;13.90;100.00;100892.38;5027787;28;20481;-82
2023/07/14 00:24:18;;;;;;;13.68;8.88;;;13.00;99.90;;;13.92;100.00;100902.06;5033450;28;20038;-82
2023/07/14 00:26:49;;;;;;;11.52;8.30;;;13.00;99.90;;;13.96;100.00;100896.97;5012232;28;20044;-81
2023/07/14 00:29:30;;;;;;;10.70;8.18;;;13.00;99.90;;;13.99;100.00;100898.38;5018019;28;20496;-83
2023/07/14 00:31:57;;;;;;;12.60;8.40;;;13.00;99.90;;;14.00;100.00;100892.66;5030438;28;20037;-83
2023/07/14 00:34:34;;;;;;;13.37;8.43;;;13.10;99.90;;;14.04;100.00;100890.28;5022292;28;20065;-83
2023/07/14 00:37:31;;;;;;;14.27;8.07;;;13.10;99.90;;;14.14;100.00;100887.81;5023887;28;20037;-83
2023/07/14 00:40:19;;;;;;;13.35;8.40;;;13.20;99.90;;;13.41;100.00;100800.06;4998149;28;20064;-84
2023/07/14 00:43:36;;;;;;;12.10;8.40;;;13.20;99.90;;;13.50;100.00;100808.81;5016349;28;20140;-84
2023/07/14 00:46:26;;;;;;;11.80;8.17;;;13.20;99.90;;;13.46;100.00;100813.94;5024755;28;20084;-82
2023/07/14 00:49:23;;;;;;;11.63;8.52;;;13.20;99.90;;;13.90;100.00;100878.66;5026263;28;20050;-83
2023/07/14 00:53:01;;;;;;;14.20;8.27;;;13.10;99.90;;;13.51;100.00;100803.09;5022746;28;20083;-82
2023/07/14 00:55:49;;;;;;;11.95;8.15;;;13.20;99.90;;;13.60;100.00;100830.16;5035619;28;20106;-82
2023/07/14 00:58:41;;;;;;;11.35;8.48;;;13.20;99.90;;;14.07;100.00;100898.06;5040172;28;20037;-82
2023/07/14 01:01:36;;;;;;;11.85;7.93;;;13.20;99.90;;;13.47;100.00;100823.81;5009406;28;20049;-82
2023/07/14 01:04:38;;;;;;;11.60;8.05;;;13.10;99.90;;;13.26;100.00;100803.22;5040264;28;20545;-83
2023/07/14 01:07:44;;;;;;;16.48;7.90;;;13.00;99.90;;;13.24;100.00;100799.84;5017556;28;20038;-83
2023/07/14 01:10:39;;;;;;;11.45;8.60;;;13.00;99.90;;;13.72;100.00;100887.78;5026801;28;20033;-83
2023/07/14 01:13:21;;;;;;;10.27;7.82;;;13.00;99.90;;;13.61;100.00;100881.19;5023639;28;20095;-82
2023/07/14 01:19:51;;;;;;;12.73;7.47;;;12.80;99.90;;;13.26;100.00;100879.91;5035374;28;20048;-83
2023/07/14 01:23:09;;;;;;;10.18;7.82;;;12.60;99.90;;;12.52;100.00;100798.56;5020468;28;20052;-82
2023/07/14 01:26:33;;;;;;;15.68;8.98;;;12.40;99.90;;;12.51;100.00;100794.16;5017312;28;20038;-83
2023/07/14 01:33:01;;;;;;;13.77;8.45;;;12.30;99.90;;;12.65;100.00;100812.13;5021562;28;20058;-83
2023/07/14 01:36:07;;;;;;;12.95;9.35;;;12.30;99.90;;;12.43;100.00;100761.63;4997062;28;20042;-82
2023/07/14 01:38:59;;;;;;;17.45;11.05;;;12.40;99.90;;;13.09;100.00;100841.31;5006869;28;20042;-81
2023/07/14 01:41:56;;;;;;;16.05;10.23;;;12.50;99.90;;;12.48;100.00;100732.53;5030165;28;20114;-82
2023/07/14 01:44:38;;;;;;;13.90;10.85;;;12.50;99.90;;;12.49;100.00;100738.81;5022171;28;20049;-83
2023/07/14 01:47:36;;;;;;;14.25;10.68;;;12.40;99.90;;;12.68;100.00;100758.00;5018212;28;20042;-82
2023/07/14 01:50:36;;;;;;;19.67;10.68;;;12.40;99.90;;;12.46;100.00;100723.69;5029473;28;20473;-82
2023/07/14 01:54:01;;;;;;;15.27;10.77;;;12.50;99.90;;;12.80;100.00;100757.00;5041339;28;20034;-82
2023/07/14 01:56:57;;;;;;;17.27;11.18;;;12.40;99.90;;;12.63;100.00;100723.94;5021081;28;20382;-82
2023/07/14 02:00:07;;;;;;;13.73;10.73;;;12.40;99.90;;;12.54;100.00;100713.53;5031561;28;20464;-82
2023/07/14 02:02:58;;;;;;;16.92;10.68;;;12.40;99.90;;;12.68;100.00;100750.59;5021732;28;20050;-83
2023/07/14 02:05:53;;;;;;;13.75;9.45;;;12.30;99.90;;;13.00;100.00;100826.28;5022044;28;20042;-82
2023/07/14 02:08:39;;;;;;;12.93;9.88;;;12.20;99.90;;;12.70;100.00;100791.44;5022851;28;20033;-82
2023/07/14 02:11:22;;;;;;;16.08;10.32;;;12.20;99.90;;;12.52;100.00;100763.84;5028049;28;20477;-82
2023/07/14 02:14:03;;;;;;;16.65;10.35;;;12.10;99.90;;;12.89;100.00;100814.19;5039139;28;20564;-81
2023/07/14 02:16:52;;;;;;;13.25;10.85;;;12.20;99.90;;;12.41;100.00;100737.22;5040322;28;20084;-83
2023/07/14 02:19:39;;;;;;;15.68;10.65;;;12.10;99.90;;;12.91;100.00;100833.97;5054888;28;20112;-83
2023/07/14 02:22:37;;;;;;;17.52;11.57;;;12.10;99.90;;;12.88;100.00;100824.31;5044879;28;20096;-82
2023/07/14 02:25:25;;;;;;;13.20;10.32;;;12.10;99.90;;;12.33;100.00;100737.53;5016486;28;20050;-82
2023/07/14 02:28:29;;;;;;;;;;;;;;;;;;;;;
2023/07/14 02:31:39;;;;;;;15.50;11.30;;;12.20;99.90;;;12.54;100.00;100758.13;5031202;28;20029;-82
2023/07/14 02:34:39;;;;;;;18.55;10.60;;;12.20;99.90;;;12.80;100.00;100806.28;5007507;28;20091;-81
2023/07/14 02:38:08;;;;;;;14.77;11.25;;;12.10;99.90;;;12.85;100.00;100810.22;5019524;28;20029;-81
2023/07/14 02:40:44;;;;;;;16.67;11.18;;;12.10;99.90;;;12.87;100.00;100819.06;5016574;28;20088;-81
2023/07/14 02:43:15;;;;;;;17.48;11.57;;;12.10;99.90;;;12.83;100.00;100815.09;5019937;28;20057;-81
2023/07/14 02:45:59;;;;;;;18.08;12.40;;;12.10;99.90;;;12.81;100.00;100818.06;5024773;28;20374;-81
2023/07/14 02:48:43;;;;;;;15.98;11.70;;;12.10;99.90;;;12.83;100.00;100817.84;5026240;28;20025;-81
2023/07/14 02:51:10;;;;;;;17.65;12.25;;;12.10;99.90;;;12.74;100.00;100807.19;5021292;28;20045;-81
2023/07/14 02:53:36;;;;;;;18.77;11.85;;;12.10;99.90;;;12.76;100.00;100813.28;5014551;28;20041;-81
2023/07/14 02:56:03;;;;;;;18.75;12.55;;;12.00;99.90;;;12.73;100.00;100821.09;5015168;28;20457;-81
2023/07/14 02:58:30;;;;;;;18.10;13.10;;;11.90;99.90;;;12.70;100.00;100825.13;5018829;28;20025;-81
2023/07/14 03:00:56;;;;;;;21.23;13.35;;;11.90;99.90;;;12.72;100.00;100813.97;5014511;28;20172;-80
2023/07/14 03:03:22;;;;;;;22.60;13.88;;;12.00;99.90;;;12.68;100.00;100810.81;5017814;28;20483;-80
2023/07/14 03:05:50;;;;;;;20.67;13.75;;;12.10;99.90;;;12.70;100.00;100792.28;5033314;28;20042;-80
2023/07/14 03:08:18;;;;;;;19.85;14.02;;;12.20;99.90;;;12.74;100.00;100790.78;5020879;28;20140;-81
2023/07/14 03:10:54;;;;;;;21.05;13.68;;;12.20;99.90;;;12.78;100.00;100782.94;5020372;28;20109;-80
2023/07/14 03:13:20;;;;;;;25.63;14.80;;;12.20;99.90;;;12.82;100.00;100786.88;5026736;28;20409;-80
2023/07/14 03:15:46;;;;;;;22.95;14.00;;;12.30;99.90;;;12.90;100.00;100780.25;5021002;28;20052;-79
2023/07/14 03:18:14;;;;;;;25.20;15.90;;;12.20;99.90;;;12.83;100.00;100780.34;5035072;28;20065;-80
2023/07/14 03:20:41;;;;;;;23.15;14.38;;;12.30;99.90;;;12.79;100.00;100771.75;5018157;28;20033;-80
2023/07/14 03:23:07;;;;;;;23.02;15.10;;;12.30;99.90;;;12.77;100.00;100771.16;5020030;28;20026;-79
2023/07/14 03:25:34;;;;;;;22.25;14.85;;;12.30;99.90;;;12.95;100.00;100774.94;5003516;28;20038;-80
2023/07/14 03:28:03;;;;;;;21.33;14.98;;;12.40;99.90;;;13.01;100.00;100775.91;5018337;28;20061;-80
2023/07/14 03:30:36;;;;;;;22.98;14.60;;;12.40;99.90;;;13.06;100.00;100781.53;5019334;28;20048;-80
2023/07/14 03:33:02;;;;;;;21.13;14.77;;;12.40;99.90;;;13.06;100.00;100787.88;5015488;28;20125;-79
2023/07/14 03:35:27;;;;;;;21.17;14.07;;;12.50;99.90;;;12.99;100.00;100781.59;5014094;28;20796;-79
2023/07/14 03:37:53;;;;;;;18.30;14.55;;;12.50;99.90;;;13.15;100.00;100790.28;5038101;28;20052;-78
2023/07/14 03:40:19;;;;;;;20.92;14.00;;;12.50;99.90;;;13.09;100.00;100792.88;5013544;28;20030;-79
2023/07/14 03:42:45;;;;;;;21.73;14.38;;;12.50;99.90;;;13.08;100.00;100793.94;5013746;28;20085;-80
2023/07/14 03:45:11;;;;;;;23.35;14.35;;;12.50;99.90;;;13.12;100.00;100804.44;5019346;28;20467;-80
2023/07/14 03:47:38;;;;;;;19.52;12.63;;;12.50;99.90;;;13.26;100.00;100810.59;5024137;28;20042;-79
2023/07/14 03:50:04;;;;;;;19.40;13.13;;;12.50;99.90;;;13.15;100.00;100810.31;5022698;28;20033;-80
2023/07/14 03:52:31;;;;;;;20.33;13.57;;;12.50;99.90;;;13.07;100.00;100807.84;5019702;28;20478;-80
2023/07/14 03:54:57;;;;;;;20.33;13.70;;;12.50;99.90;;;13.07;100.00;100803.22;5027308;28;20044;-80
2023/07/14 03:57:22;;;;;;;21.30;13.25;;;12.50;99.90;;;13.01;100.00;100811.53;5016540;28;20026;-80
2023/07/14 03:59:48;;;;;;;20.20;13.63;;;12.50;99.90;;;13.07;100.00;100805.13;5020861;28;20042;-80
2023/07/14 04:02:14;;;;;;;21.73;13.27;;;12.50;99.90;;;12.95;100.00;100796.84;5038908;28;20489;-80
2023/07/14 04:04:40;;;;;;;21.98;13.63;;;12.50;99.90;;;13.02;100.00;100797.63;5029073;28;20053;-80
2023/07/14 04:07:07;;;;;;;20.35;12.85;;;12.60;99.90;;;13.15;100.00;100796.59;5017410;28;20041;-86
2023/07/14 04:09:33;;;;;;;22.80;13.02;;;12.60;99.90;;;13.14;100.00;100800.41;5020577;28;20049;-78
2023/07/14 04:11:59;;;;;;;19.75;13.13;;;12.70;99.90;;;13.19;100.00;100796.97;5018276;28;20030;-78
2023/07/14 04:14:24;;;;;;;20.20;12.75;;;12.70;99.90;;;13.28;100.00;100808.44;5010097;28;20041;-78
2023/07/14 04:16:50;;;;;;;18.58;12.68;;;12.80;99.90;;;13.47;100.00;100814.75;5013390;28;20103;-78
2023/07/14 04:19:16;;;;;;;21.17;13.40;;;12.90;99.90;;;13.65;100.00;100813.84;5017698;28;20041;-78
2023/07/14 04:21:46;;;;;;;16.83;11.73;;;12.90;99.90;;;13.68;100.00;100829.00;5021825;28;20037;-78
2023/07/14 04:24:12;;;;;;;20.70;12.82;;;13.00;99.90;;;13.70;100.00;100843.31;5018976;28;20463;-79
2023/07/14 04:26:38;;;;;;;18.70;12.52;;;13.00;99.90;;;13.70;100.00;100846.91;5015140;28;20050;-80
2023/07/14 04:29:07;;;;;;;18.48;11.48;;;13.00;99.90;;;13.73;100.00;100856.56;5012786;28;20123;-79
2023/07/14 04:31:33;;;;;;;14.23;10.90;;;13.10;99.90;;;13.75;100.00;100865.38;5017044;28;20159;-79
2023/07/14 04:33:59;;;;;;;17.27;11.10;;;13.00;99.90;;;13.79;100.00;100870.19;5018950;28;20075;-79
2023/07/14 04:36:25;;;;;;;17.40;10.98;;;13.10;99.90;;;13.84;100.00;100866.75;5019143;28;20048;-79
2023/07/14 04:39:19;;;;;;;16.35;10.93;;;13.20;99.90;;;14.14;100.00;100876.84;5019499;28;20038;-79
2023/07/14 04:41:45;;;;;;;20.95;10.77;;;13.30;99.90;;;14.17;100.00;100876.38;5025474;28;20124;-79
2023/07/14 04:44:14;;;;;;;21.27;10.60;;;13.40;99.90;;;14.43;100.00;100893.47;5014589;28;20021;-77
2023/07/14 04:46:43;;;;;;;21.08;9.05;;;13.60;99.90;;;14.58;100.00;100906.75;5027362;28;20060;-78
2023/07/14 04:49:11;;;;;;;17.48;9.48;;;13.70;99.90;;;14.61;100.00;100916.41;5017922;28;20053;-78
2023/07/14 04:51:38;;;;;;;17.42;9.88;;;13.90;99.90;;;14.68;100.00;100919.88;5016437;28;20597;-79
2023/07/14 04:54:06;;;;;;;15.07;9.38;;;14.00;99.90;;;14.80;100.00;100920.75;5030960;28;20116;-78
2023/07/14 04:56:37;;;;;;;15.48;9.55;;;14.10;99.90;;;14.88;100.00;100924.22;5011864;28;20042;-79
2023/07/14 04:59:06;;;;;;;13.95;8.48;;;14.20;99.90;;;14.99;100.00;100933.53;5016649;28;20176;-78
2023/07/14 05:01:32;;;;;;;16.38;8.00;;;14.20;99.90;;;15.08;100.00;100935.66;5015976;28;20060;-77
2023/07/14 05:03:58;;;;;;;11.65;7.30;;;14.40;99.90;;;15.13;100.00;100931.38;5012244;28;20038;-77
2023/07/14 05:06:23;;;;;;;12.18;7.15;;;14.50;99.90;;;15.27;100.00;100942.94;5012072;28;20053;-77
2023/07/14 05:08:49;;;;;;;15.18;6.57;;;14.60;99.90;;;15.36;100.00;100947.81;5012450;28;20034;-81
2023/07/14 05:11:15;;;;;;;11.90;7.03;;;14.70;99.90;;;15.51;100.00;100940.97;5032824;28;20084;-80
2023/07/14 05:13:41;;;;;;;10.18;6.32;;;14.80;99.90;;;15.60;100.00;100939.50;5016698;28;20069;-79
2023/07/14 05:16:07;;;;;;;10.63;7.30;;;14.90;99.90;;;15.77;100.00;100941.50;5025444;28;20045;-81
2023/07/14 05:18:34;;;;;;;12.80;7.22;;;15.00;99.90;;;15.86;100.00;100934.53;5047193;28;20096;-89
2023/07/14 05:21:05;;;;;;;9.35;6.25;;;15.10;99.90;;;15.95;100.00;100948.75;5030587;28;20034;-80
2023/07/14 05:23:32;;;;;;;9.65;5.63;;;15.20;99.90;;;16.02;100.00;100952.19;5020398;28;20099;-79
2023/07/14 05:25:58;;;;;;;9.93;6.20;;;15.40;99.90;;;16.21;100.00;100963.84;5019938;28;20100;-82
2023/07/14 05:28:25;;;;;;;9.93;6.20;;;15.50;99.90;;;16.34;100.00;100953.59;5015708;28;20038;-77
2023/07/14 05:30:52;;;;;;;7.45;5.63;;;15.70;99.90;;;16.41;100.00;100961.72;5018946;28;20034;-81
2023/07/14 05:33:19;;;;;;;8.33;5.37;;;15.80;99.90;;;16.52;100.00;100967.16;5022124;28;20041;-81
2023/07/14 05:35:46;;;;;;;7.53;5.22;;;15.90;99.90;;;16.40;100.00;100980.13;5018173;28;20391;-78
2023/07/14 05:38:14;;;;;;;8.00;5.28;;;15.90;99.90;;;16.56;100.00;100972.16;5019694;28;20037;-79
2023/07/14 05:40:40;;;;;;;9.10;5.07;;;16.00;99.90;;;16.75;100.00;100981.84;5019673;28;20119;-78
2023/07/14 05:43:06;;;;;;;8.88;4.90;;;16.10;99.90;;;16.80;100.00;100995.69;5034613;28;20263;-79
2023/07/14 05:45:32;;;;;;;9.32;5.00;;;16.20;99.90;;;16.77;100.00;100932.84;5056681;23;20977;-76
2023/07/14 05:47:58;;;;;;;9.35;4.80;;;16.50;99.90;;;17.35;100.00;100987.75;4993898;28;20117;-79
2023/07/14 05:50:24;;;;;;;9.18;4.35;;;16.70;99.90;;;17.85;100.00;101000.78;4985581;28;20122;-79
2023/07/14 05:52:50;;;;;;;9.70;5.25;;;17.00;99.90;;;18.00;100.00;100989.94;4983903;28;20031;-79
2023/07/14 05:55:16;;;;;;;9.55;4.88;;;17.30;99.90;;;18.28;100.00;100998.25;5006097;28;20116;-79
2023/07/14 05:57:43;;;;;;;6.63;4.28;;;17.50;99.90;;;18.54;100.00;100994.63;4980195;28;20053;-78
2023/07/14 06:00:16;;;;;;;7.18;4.35;;;17.80;99.90;;;18.81;100.00;100993.75;4989316;28;20443;-79
2023/07/14 06:02:47;;;;;;;6.68;3.85;;;18.10;99.90;;;19.24;100.00;100993.00;4987145;28;20422;-78
2023/07/14 06:05:14;;;;;;;7.95;4.15;;;18.30;99.90;;;19.02;100.00;100993.13;4976630;28;20039;-80
2023/07/14 06:07:40;;;;;;;7.45;3.70;;;18.50;99.90;;;19.24;100.00;100998.53;4983921;28;20123;-80
2023/07/14 06:10:08;;;;;;;8.65;3.97;;;18.60;99.90;;;19.30;100.00;101000.22;4982359;28;20471;-80
2023/07/14 06:12:34;;;;;;;8.82;3.97;;;18.70;99.90;;;19.41;100.00;100995.59;4986019;28;20491;-79
2023/07/14 06:15:01;;;;;;;8.27;4.15;;;18.90;99.90;;;19.39;100.00;100995.88;4985392;28;20038;-78
2023/07/14 06:17:27;;;;;;;6.97;3.92;;;18.90;99.90;;;19.44;100.00;100988.69;4989878;28;20034;-78
2023/07/14 06:19:53;;;;;;;7.22;3.80;;;18.90;99.90;;;19.48;100.00;100985.09;4986631;28;20038;-78
2023/07/14 06:22:20;;;;;;;7.72;4.10;;;19.00;99.90;;;19.31;100.00;100981.72;4986088;28;20475;-79
2023/07/14 06:24:48;;;;;;;9.05;3.65;;;19.00;99.90;;;19.51;100.00;100981.81;4991982;28;20046;-79
2023/07/14 06:27:15;;;;;;;9.18;4.10;;;19.00;99.90;;;19.72;100.00;100979.13;4986746;28;20526;-79
2023/07/14 06:29:40;;;;;;;7.25;3.53;;;19.20;99.90;;;19.95;100.00;100980.66;4980993;28;20434;-79
2023/07/14 06:32:07;;;;;;;7.72;4.03;;;19.40;99.90;;;20.06;100.00;100966.81;4991164;28;20089;-77
2023/07/14 06:34:33;;;;;;;11.82;4.10;;;19.40;99.90;;;19.83;100.00;100968.94;4990924;28;20070;-79
2023/07/14 06:36:58;;;;;;;7.40;3.63;;;19.50;99.90;;;19.63;100.00;100973.31;4989080;28;20233;-78
2023/07/14 06:39:24;;;;;;;8.07;3.85;;;19.50;99.90;;;19.98;100.00;100977.31;4990104;28;20042;-78
2023/07/14 06:41:50;;;;;;;7.43;3.63;;;19.60;99.90;;;19.87;100.00;100981.13;4997683;28;20062;-79
2023/07/14 06:44:19;;;;;;;7.78;3.78;;;19.50;99.90;;;19.83;100.00;100977.22;5003974;28;20026;-79
2023/07/14 06:46:45;;;;;;;10.30;4.07;;;19.40;99.90;;;19.79;100.00;100981.66;4960336;28;1043525;-78
2023/07/14 06:49:12;;;;;;;5.28;3.70;;;19.40;99.90;;;19.79;100.00;100976.13;4987361;28;20045;-78
2023/07/14 06:51:37;;;;;;;9.65;4.20;;;19.30;99.90;;;19.84;100.00;100978.91;4979573;28;20038;-78
2023/07/14 06:54:03;;;;;;;9.05;4.32;;;19.40;99.90;;;19.85;100.00;100952.88;4988910;28;20081;-79
2023/07/14 06:56:29;;;;;;;8.73;4.70;;;19.40;99.90;;;20.10;100.00;100979.00;4984205;28;20046;-79
2023/07/14 06:58:55;;;;;;;8.77;4.28;;;19.50;99.90;;;20.22;100.00;100973.22;4988197;28;20033;-79
2023/07/14 07:01:21;;;;;;;9.25;4.68;;;19.60;99.90;;;20.22;100.00;100964.91;4986890;28;20054;-80
2023/07/14 07:03:47;;;;;;;8.48;4.47;;;19.70;99.90;;;20.37;100.00;100972.41;4981351;28;20031;-81
2023/07/14 07:06:15;;;;;;;8.23;4.60;;;19.80;99.90;;;20.30;100.00;100972.69;4988048;28;20081;-79
2023/07/14 07:08:42;;;;;;;8.95;4.35;;;19.90;99.90;;;20.36;100.00;100968.81;4980515;28;20483;-81
2023/07/14 07:11:13;;;;;;;6.07;3.55;;;20.00;99.90;;;20.55;100.00;100980.19;4982478;28;20141;-79
2023/07/14 07:13:39;;;;;;;10.15;3.90;;;20.10;99.90;;;20.49;100.00;100970.22;4982797;28;20124;-78
2023/07/14 07:16:05;;;;;;;7.65;3.72;;;20.20;99.90;;;20.72;100.00;100970.78;4982306;28;20410;-78
2023/07/14 07:18:31;;;;;;;6.65;3.42;;;20.30;99.90;;;20.79;100.00;100970.47;4988557;28;20479;-78
2023/07/14 07:20:57;;;;;;;9.32;3.95;;;20.40;99.90;;;20.86;100.00;100978.56;4981827;28;20050;-79
2023/07/14 07:23:23;;;;;;;8.30;4.10;;;20.50;99.90;;;20.99;100.00;100975.22;4988081;28;20474;-78
2023/07/14 07:25:51;;;;;;;7.15;3.92;;;20.70;99.90;;;20.96;100.00;100970.25;4980840;28;20046;-78
2023/07/14 07:28:18;;;;;;;10.23;4.20;;;20.60;99.90;;;21.06;100.00;100969.38;4990039;28;20038;-76
2023/07/14 07:30:45;;;;;;;9.07;3.67;;;20.70;99.90;;;;;;4989171;28;20117;-79
2023/07/14 07:33:11;;;;;;;9.13;4.07;;;20.70;99.90;;;21.30;100.00;100966.84;4987941;28;20291;-78
2023/07/14 07:35:39;;;;;;;8.68;4.57;;;20.80;99.90;;;21.12;100.00;100959.94;4987147;28;20070;-78
2023/07/14 07:38:05;;;;;;;7.70;4.50;;;20.80;99.90;;;21.15;100.00;100964.94;4984807;28;20171;-79
2023/07/14 07:40:31;;;;;;;10.77;4.55;;;20.80;99.90;;;21.23;100.00;100958.81;4981181;28;20649;-78
2023/07/14 07:42:57;;;;;;;8.88;4.13;;;20.90;99.90;;;21.58;100.00;100958.97;4988489;28;20757;-79
2023/07/14 07:45:23;;;;;;;9.93;4.30;;;21.00;99.90;;;21.64;100.00;100949.53;4987532;28;20215;-79
2023/07/14 07:47:49;;;;;;;8.23;4.40;;;21.20;99.90;;;21.84;99.89;100945.00;4981209;28;20034;-79
2023/07/14 07:50:15;;;;;;;10.27;4.05;;;21.30;99.90;;;21.82;99.25;100944.47;4986645;28;20042;-79
2023/07/14 07:52:41;;;;;;;7.45;4.10;;;21.40;99.90;;;21.89;97.09;100939.41;4994709;28;20049;-79
2023/07/14 07:55:07;;;;;;;6.57;3.70;;;21.50;99.90;;;21.91;94.29;100939.13;4985682;28;20118;-79
2023/07/14 07:57:33;;;;;;;8.38;4.22;;;21.50;99.90;;;21.81;91.94;100926.13;4985876;28;20077;-79
2023/07/14 07:59:59;;;;;;;8.05;3.70;;;21.40;99.90;;;21.95;94.62;100938.25;4989015;28;20035;-79
2023/07/14 08:02:25;;;;;;;6.57;3.53;;;21.50;99.90;;;21.93;89.82;100926.59;4981172;28;20041;-80
2023/07/14 08:04:51;;;;;;;8.32;3.42;;;21.50;99.90;;;21.96;91.54;100922.44;4984684;28;20359;-83
2023/07/14 08:07:17;;;;;;;7.82;3.80;;;21.50;99.90;;;21.77;99.34;100936.16;4983167;28;20041;-83
2023/07/14 08:09:43;;;;;;;8.10;3.58;;;21.50;99.90;;;21.93;96.06;100923.84;4990373;28;20572;-80
2023/07/14 08:12:09;;;;;;;7.63;3.80;;;21.60;99.90;;;21.63;94.44;100931.19;4985623;28;20116;-78
2023/07/14 08:14:53;;;;;;;6.75;3.17;;;21.50;99.90;;;21.95;100.00;100941.03;4981718;28;20505;-80
2023/07/14 08:17:31;;;;;;;5.18;3.10;;;21.60;99.90;;;22.34;98.56;100931.06;4985560;28;20281;-79
2023/07/14 08:19:57;;;;;;;5.10;2.83;;;21.80;99.90;;;22.16;93.84;100929.78;4986739;28;20046;-80
2023/07/14 08:22:25;;;;;;;8.50;2.95;;;21.90;99.90;;;22.51;94.62;100924.28;4982250;28;20035;-81
2023/07/14 08:24:53;;;;;;;5.82;2.70;;;22.00;99.90;;;22.55;93.55;100922.59;4984329;28;20056;-79
2023/07/14 08:27:19;;;;;;;5.43;2.50;;;22.10;99.90;;;22.42;85.47;100921.25;4981700;28;20045;-81
2023/07/14 08:29:45;;;;;;;5.05;2.38;;;22.10;99.90;;;22.32;84.01;100916.63;4989298;28;20050;-81
2023/07/14 08:32:11;;;;;;;5.38;2.53;;;22.20;99.90;;;22.07;83.73;100918.47;4988526;28;20050;-80
2023/07/14 08:34:36;;;;;;;6.57;3.15;;;22.10;99.90;;;22.52;93.19;100926.75;4989750;28;20045;-80
2023/07/14 08:37:04;;;;;;;8.07;3.22;;;22.10;99.90;;;21.99;91.55;100917.13;4990308;28;20034;-79
2023/07/14 08:39:32;;;;;;;;;;;22.00;99.90;;;22.42;92.58;100919.34;4980861;28;20030;-82
2023/07/14 08:42:07;;;;;;;7.63;3.03;;;22.10;99.90;;;22.75;88.92;100918.78;4990296;28;19933;-80
2023/07/14 08:45:24;;;;;;;6.97;2.95;;;22.30;99.90;;;22.73;90.02;100923.00;5002896;28;20493;-78
2023/07/14 08:48:05;;;;;;;6.07;2.88;;;22.40;99.90;;;23.08;94.55;100926.53;4989941;28;20062;-78
2023/07/14 08:50:32;;;;;;;7.57;2.70;;;22.60;99.90;;;23.10;84.33;100916.75;4973638;28;20056;-79
2023/07/14 08:53:04;;;;;;;6.18;2.90;;;22.70;99.90;;;23.29;84.75;100915.19;4985083;28;20034;-80
2023/07/14 08:55:38;;;;;;;6.57;2.90;;;23.00;99.90;;;23.44;84.75;100914.16;4984411;28;20096;-78
2023/07/14 08:58:16;;;;;;;6.38;2.88;;;;;;;23.65;86.01;100907.22;4986253;28;20062;-80
2023/07/14 09:00:54;;;;;;;6.90;3.28;;;;;;;23.57;81.51;100910.66;4988599;28;20363;-79
2023/07/14 09:03:50;;;;;;;4.88;2.80;;;;;;;24.01;90.03;100917.06;4984578;28;20129;-79
2023/07/14 09:06:33;;;;;;;4.43;2.30;;;;;;;24.23;66.96;100894.13;4980046;28;21858;-78
2023/07/14 09:09:00;;;;;;;3.88;2.10;;;;;;;24.56;60.97;100877.38;4989666;28;20066;-79
2023/07/14 09:12:00;;;;;;;4.25;1.92;;;;;;;24.66;51.80;100853.22;4986798;28;20470;-80
2023/07/14 09:14:41;;;;;;;4.95;2.05;;;;;;;24.62;52.98;100874.50;4985307;28;20069;-79
2023/07/14 09:17:10;;;;;;;5.78;2.20;;;;;;;24.32;58.40;100893.41;4978131;28;20031;-82
2023/07/14 09:20:00;;;;;;;3.90;2.28;;;;;;;25.05;65.46;100891.00;4988961;28;20109;-80
2023/07/14 09:22:57;;;;;;;4.68;2.28;;;;;;;24.82;55.40;100864.97;4989042;28;20080;-79
2023/07/14 09:26:05;;;;;;;4.10;2.30;;;;;;;25.35;57.65;100883.16;4996191;28;20382;-79
2023/07/14 09:28:42;;;;;;;5.18;2.63;;;;;;;25.45;54.49;100873.72;4988419;28;20046;-81
2023/07/14 09:31:26;;;;;;;3.72;2.03;;;;;;;25.34;47.85;100836.00;4983531;28;20069;-77
2023/07/14 09:34:00;;;;;;;4.00;1.95;;;;;;;25.26;47.15;100843.16;4981860;28;20035;-80
2023/07/14 09:36:28;;;;;;;4.63;1.90;;;;;;;25.50;45.74;100836.53;4990237;28;20467;-82
2023/07/14 09:38:59;;;;;;;5.22;2.13;;;;;;;25.19;48.35;100856.69;4987975;28;20038;-82
2023/07/14 09:41:28;;;;;;;4.60;2.35;;;;;;;24.92;49.15;100861.97;4982221;28;20038;-83
2023/07/14 09:43:58;;;;;;;3.92;2.20;;;;;;;25.03;50.92;100854.22;4984897;28;20046;-82
2023/07/14 09:46:30;;;;;;;4.70;1.90;;;;;;;25.30;49.27;100849.75;4982126;28;20058;-85
2023/07/14 09:49:09;;;;;;;5.80;2.45;;;;;;;25.70;48.94;100847.19;4980709;28;20045;-81
2023/07/14 09:51:36;;;;;;;5.60;2.15;;;;;;;24.32;45.09;100815.38;4988355;28;20058;-83
2023/07/14 09:54:12;;;;;;;5.47;2.15;;;;;;;24.44;47.54;100842.75;4989352;28;20030;-83
2023/07/14 09:56:43;;;;;;;3.28;2.10;;;;;;;24.84;43.21;100799.34;4971413;28;20050;-81
2023/07/14 09:59:23;;;;;;;4.00;1.92;;;;;;;25.25;42.97;100803.22;4980185;28;20066;-83
2023/07/14 10:01:56;;;;;;;4.82;2.10;;;;;;;25.34;45.49;100828.44;4986671;28;20126;-79
2023/07/14 10:04:32;;;;;;;4.90;2.10;;;;;;;25.47;45.50;100834.38;4989183;28;20130;-81
2023/07/14 10:07:22;;;;;;;5.00;2.00;;;;;;;25.84;44.57;100827.59;4991461;28;20034;-80
2023/07/14 10:09:57;;;;;;;5.55;2.00;;;;;;;25.89;42.52;100803.50;4987440;28;20387;-80
2023/07/14 10:12:23;;;;;;;4.80;2.00;;;;;;;26.25;40.76;100774.66;4987377;28;20049;-80
2023/07/14 10:14:53;;;;;;;6.60;2.15;;;;;;;26.59;41.96;100795.53;4976169;28;20039;-81
2023/07/14 10:17:25;;;;;;;4.07;1.80;;;;;;;26.27;41.44;100789.97;4975549;28;20049;-82
2023/07/14 10:19:55;;;;;;;3.80;1.90;;;;;;;26.71;41.10;100787.34;4990234;28;20026;-81
2023/07/14 10:22:28;;;;;;;4.10;1.88;;;;;;;26.59;39.83;100778.75;4982775;28;20093;-82
2023/07/14 10:24:59;;;;;;;4.93;2.13;;;;;;;26.22;40.11;100773.31;4996702;28;20030;-81
2023/07/14 10:27:35;;;;;;;5.55;2.15;;;;;;;26.83;39.05;100746.72;5005943;28;20062;-82
2023/07/14 10:30:27;;;;;;;3.33;1.70;;;;;;;28.30;37.69;100750.19;5013189;28;20095;-79
2023/07/14 10:33:17;;;;;;;4.72;2.20;;;;;;;27.83;37.52;100749.81;4978393;28;20085;-80
2023/07/14 10:36:13;;;;;;;4.07;1.73;;;;;;;29.54;34.43;100718.22;4990469;28;20406;-81
2023/07/14 10:38:59;;;;;;;4.53;2.10;;;;;;;30.68;33.29;100706.88;4962767;28;20089;-82
2023/07/14 10:41:26;;;;;;;6.18;2.42;;;;;;;30.31;32.30;100681.53;5003592;28;20042;-82
2023/07/14 10:44:01;;;;;;;11.13;2.65;;;;;;;32.16;31.19;100686.94;4985815;28;20120;-79
2023/07/14 10:46:50;;;;;;;4.53;2.03;;;;;;;32.60;31.72;100723.53;4983799;28;20046;-81
2023/07/14 10:49:16;;;;;;;;;;;;;;;31.95;28.79;100660.63;4986912;28;20042;-79
2023/07/14 10:51:50;;;;;;;5.15;2.08;;;;;;;32.75;30.18;100690.81;4981307;28;19941;-81
2023/07/14 10:54:37;;;;;;;4.40;2.28;;;;;;;33.10;28.06;100650.41;4967084;28;20052;-81
2023/07/14 10:57:33;;;;;;;2.88;1.63;;;;;;;32.47;28.88;100659.88;4990411;28;20170;-80